AirNav   Pilot Hours Calculator
 
 674 users online  

PN74 Hilltop Heliport
Troy, Pennsylvania, USA

GOING TO TROY?


FAA INFORMATION EFFECTIVE 05 DECEMBER 2019

Location

FAA Identifier: PN74
Lat/Long: 41-46-55.1800N 076-48-22.6400W
41-46.919667N 076-48.377333W
41.7819944,-76.8062889
(estimated)
Elevation: 1370 ft. / 418 m (estimated)
Variation: 12W (2005)
From city: 1 mile W of TROY, PA
Time zone: UTC -5 (UTC -4 during Daylight Saving Time)
Zip code: 16947

Heliport Operations

Heliport use: Private use, MEDICAL USE.
Activation date: 11/2006
Control tower: no
ARTCC: NEW YORK CENTER
FSS: WILLIAMSPORT FLIGHT SERVICE STATION
NOTAMs facility: FDC (NOTAM-D service not available)
Attendance: UNATNDD
Wind indicator: yes
Segmented circle: no

Heliport Communications

HEVUD DP: 128.425
WX AWOS-3 at N27 (16 nm E): 119.925 (570-265-1024)
  • APCH/DEP SVC PRVDD BY NEW YORK ARTCC (ZNY) ON 133.35/372,0 (SAYRE RCAG) WHEN ELMIRA APCH CLSD.

Nearby radio navigation aids

VOR radial/distance  VOR name  Freq  Var
ULWr164/21.1ELMIRA VOR/DME109.6512W
FQMr006/26.6WILLIAMSPORT VOR/DME114.4009W
SFKr087/28.0STONYFORK VOR/DME108.6008W
CFBr243/37.4BINGHAMTON VOR/DME112.2010W

 
NDB name  Hdg/Dist  Freq  Var  ID
ALPINE196/27.524512WALP .- .-.. .--.

Heliport Services

Runway Information

Helipad H1

Dimensions: 50 x 50 ft. / 15 x 15 m
Surface: turf, in fair condition
Runway edge lights: PERI
PORTABLE PERI LGTS PRVDD BY LOCAL EMS.
Latitude: 41-46.919667N
Longitude: 076-48.377333W
Elevation: 1370.0 ft.
Traffic pattern: leftleft
Markings: none, in fair condition

Heliport Ownership and Management from official FAA records

Ownership: Privately-owned
Owner: TROY EMS
366 GLASCOCK - SUITE 205
ALCOA, TN 33701
Phone 865-681-6137
Manager: JASON PATRICK, STI
366 GLASCOCK, SUITE 205, 366 GLASCOCK, SUITE 205
ALCOA, TN 33701
Phone 865-681-6137

Additional Remarks

FOR CD CTC NEW YORK ARTCC AT 631-468-1425.

Instrument Procedures

There are no published instrument procedures at PN74.

Some nearby airports with instrument procedures:

N27 - Bradford County Airport (16 nm E)
KELM - Elmira/Corning Regional Airport (23 nm N)
N38 - Wellsboro Johnston Airport (27 nm W)
KIPT - Williamsport Regional Airport (33 nm S)
KCZG - Tri-Cities Airport (36 nm NE)
 
Loc | Ops | Rwys | IFR | FBO | Links
Com | Nav | Svcs | Stats | Notes
Area around PN74 (Hilltop Heliport)
 
Road maps at: MapQuest Bing Google
 
Aerial photo
No photo
 
Sectional chart

 
Airport distance calculator
Flying to Hilltop Heliport? Find the distance to fly.

From to PN74

Sunrise and sunset
Times for 07-Dec-2019
 Local
(UTC-5)
 Zulu
(UTC)
Morning civil twilight06:5111:51
Sunrise07:2212:22
Sunset16:3521:35
Evening civil twilight17:0722:07

Current date and time
Zulu (UTC)  07-Dec-2019 09:20:14
Local (UTC-5)  07-Dec-2019 04:20:14
 
METAR
KELM 
22nm N 
070853Z AUTO 32009KT 10SM OVC043 M01/M08 A3025 RMK AO2 SLP253 T10111083 53017
KN38 
27nm W 
070855Z AUTO 31010G19KT 280V340 10SM OVC036 M03/M09 A3020 RMK AO2
KIPT 
32nm S 
070854Z AUTO 28005KT 10SM OVC047 M01/M06 A3027 RMK AO2 SLP254 T10111061 53015
KITH 
44nm N 
070856Z AUTO 29013KT 10SM BKN038 BKN048 M03/M07 A3023 RMK AO2 SNB07E19 SLP251 P0000 60000 T10331072 53017
TAF
KELM 
22nm N 
070540Z 0706/0806 24004KT P6SM OVC035 FM071400 30007KT P6SM BKN035 FM072000 30005KT P6SM SCT040
NOTAMs
Click for the latest NOTAMs
NOTAMs are issued by the DoD/FAA and will open in a separate window not controlled by AirNav.

 

 
 

Would you like to see your business listed on this page?

 If your business provides an interesting product or service to pilots, flight crews, aircraft, or users of the Hilltop Heliport, you should consider listing it here.  To start the listing process, click on the button below
 
Add a business
 

Other Pages about Hilltop Heliport

Update a link
 
Copyright © AirNav, LLC. All rights reserved. Privacy Policy  Contact